Time;durP1;ratioP1;P1;durP2;ratioP2;P2;SDS_P1;SDS_P2;PMS_P1;PMS_P2;Temp;Humidity;BMP_temperature;BMP_pressure;BME280_temperature;BME280_humidity;BME280_pressure;Samples;Min_cycle;Max_cycle;Signal;HPM_P1;HPM_P2
2022/08/31 00:05:22;;;;;;;1.30;0.70;;;15.90;99.90;;;;;;4997193;28;20551;-86
2022/08/31 00:07:49;;;;;;;1.95;0.90;;;15.90;99.90;;;;;;4996819;28;20603;-89
2022/08/31 00:10:17;;;;;;;1.13;0.68;;;15.80;99.90;;;;;;4995646;28;20203;-84
2022/08/31 00:12:48;;;;;;;0.93;0.60;;;15.80;99.90;;;;;;4979078;28;20184;-91
2022/08/31 00:15:17;;;;;;;0.90;0.68;;;15.70;99.90;;;;;;4979231;28;20188;-85
2022/08/31 00:17:44;;;;;;;1.10;0.73;;;15.70;99.90;;;;;;4961792;28;20192;-89
2022/08/31 00:20:11;;;;;;;1.30;0.80;;;15.80;99.90;;;;;;4959881;28;20499;-86
2022/08/31 00:22:37;;;;;;;0.77;0.70;;;15.70;99.90;;;;;;4959956;28;20177;-85
2022/08/31 00:25:04;;;;;;;0.70;0.70;;;15.70;99.90;;;;;;4959759;28;20303;-89
2022/08/31 00:27:30;;;;;;;1.27;0.80;;;15.70;99.90;;;;;;4976476;28;20693;-84
2022/08/31 00:30:14;;;;;;;1.58;0.70;;;15.70;99.90;;;;;;4978814;28;20243;-85
2022/08/31 00:32:40;;;;;;;0.80;0.68;;;15.70;99.90;;;;;;4996423;28;20176;-84
2022/08/31 00:35:06;;;;;;;1.60;0.70;;;15.70;99.90;;;;;;4996276;28;20730;-84
2022/08/31 00:37:33;;;;;;;1.38;0.63;;;15.70;99.90;;;;;;4978770;28;20623;-86
2022/08/31 00:39:58;;;;;;;1.85;0.70;;;15.70;99.90;;;;;;4996235;28;20168;-85
2022/08/31 00:42:24;;;;;;;5.72;0.90;;;15.70;99.90;;;;;;4978656;28;20176;-84
2022/08/31 00:44:50;;;;;;;1.25;0.63;;;15.70;99.90;;;;;;4978398;28;20238;-84
2022/08/31 00:47:17;;;;;;;3.35;1.00;;;15.70;99.90;;;;;;4964694;28;20534;-84
2022/08/31 00:49:48;;;;;;;1.58;0.80;;;15.70;99.90;;;;;;4959199;28;20193;-83
2022/08/31 00:52:19;;;;;;;0.75;0.50;;;15.70;99.90;;;;;;4959291;28;20180;-83
2022/08/31 00:54:55;;;;;;;0.70;0.60;;;15.70;99.90;;;;;;4959410;28;20169;-89
2022/08/31 00:57:23;;;;;;;0.90;0.60;;;15.70;99.90;;;;;;4975724;28;20192;-91
2022/08/31 00:59:50;;;;;;;1.95;0.82;;;15.70;99.90;;;;;;4996714;28;20156;-87
2022/08/31 01:02:17;;;;;;;1.02;0.80;;;15.70;99.90;;;;;;4996449;28;20690;-90
2022/08/31 01:04:43;;;;;;;0.95;0.70;;;15.70;99.90;;;;;;4979283;28;20183;-88
2022/08/31 01:07:09;;;;;;;1.13;0.70;;;15.70;99.90;;;;;;4996356;28;20190;-88
2022/08/31 01:09:38;;;;;;;0.82;0.55;;;15.60;99.90;;;;;;4996364;28;20195;-87
2022/08/31 01:12:06;;;;;;;2.78;0.80;;;15.60;99.90;;;;;;4995989;28;20203;-90
2022/08/31 01:14:32;;;;;;;1.73;0.77;;;15.50;99.90;;;;;;4996609;28;20195;-89
2022/08/31 01:17:05;;;;;;;0.80;0.60;;;15.50;99.90;;;;;;4995717;28;20184;-88
2022/08/31 01:19:46;;;;;;;1.30;0.70;;;15.50;99.90;;;;;;4978841;28;20184;-89
2022/08/31 01:22:17;;;;;;;0.60;0.60;;;15.50;99.90;;;;;;4995948;28;20579;-88
2022/08/31 01:24:45;;;;;;;2.22;0.80;;;15.50;99.90;;;;;;4978559;28;20226;-90
2022/08/31 01:27:13;;;;;;;1.52;0.60;;;15.40;99.90;;;;;;4995565;28;20634;-87
2022/08/31 01:29:39;;;;;;;1.08;0.60;;;15.40;99.90;;;;;;4977921;28;20238;-82
2022/08/31 01:32:06;;;;;;;1.10;0.70;;;15.40;99.90;;;;;;4995273;28;20679;-85
2022/08/31 01:34:33;;;;;;;3.30;0.57;;;15.30;99.90;;;;;;4974391;28;20664;-84
2022/08/31 01:37:00;;;;;;;1.70;0.68;;;15.30;99.90;;;;;;4975619;28;20172;-84
2022/08/31 01:39:26;;;;;;;1.10;0.75;;;15.30;99.90;;;;;;4975610;28;20177;-83
2022/08/31 01:41:52;;;;;;;1.33;0.63;;;15.40;99.90;;;;;;4975446;28;20196;-84
2022/08/31 01:44:21;;;;;;;0.80;0.60;;;15.30;99.90;;;;;;4975608;28;20181;-84
2022/08/31 01:46:47;;;;;;;0.85;0.65;;;15.40;99.90;;;;;;4958103;28;20207;-85
2022/08/31 01:49:14;;;;;;;1.45;0.70;;;15.30;99.90;;;;;;4958213;28;20212;-90
2022/08/31 01:51:40;;;;;;;1.45;0.70;;;15.30;99.90;;;;;;4972939;28;20277;-88
2022/08/31 01:54:07;;;;;;;1.27;0.73;;;15.30;99.90;;;;;;4995738;28;20172;-91
2022/08/31 01:56:37;;;;;;;1.58;0.60;;;15.20;99.90;;;;;;4977968;28;20183;-89
2022/08/31 01:59:05;;;;;;;0.70;0.65;;;15.20;99.90;;;;;;4995696;28;20501;-87
2022/08/31 02:01:34;;;;;;;2.05;0.50;;;15.20;99.90;;;;;;4995589;28;20510;-88
2022/08/31 02:04:02;;;;;;;1.23;0.57;;;15.20;99.90;;;;;;4978019;28;20179;-89
2022/08/31 02:06:28;;;;;;;2.03;0.65;;;15.10;99.90;;;;;;4978210;28;20261;-88
2022/08/31 02:08:55;;;;;;;1.50;0.90;;;15.10;99.90;;;;;;4995392;28;20195;-91
2022/08/31 02:11:21;;;;;;;1.35;0.60;;;15.00;99.90;;;;;;4995227;28;20666;-85
2022/08/31 02:13:47;;;;;;;1.45;0.55;;;15.00;99.90;;;;;;4995261;28;20214;-87
2022/08/31 02:16:13;;;;;;;0.77;0.50;;;15.00;99.90;;;;;;4977603;28;20187;-89
2022/08/31 02:18:40;;;;;;;3.03;0.63;;;15.00;99.90;;;;;;4995408;28;20176;-89
2022/08/31 02:21:05;;;;;;;3.58;0.70;;;14.90;99.90;;;;;;4977960;28;20180;-91
2022/08/31 02:23:31;;;;;;;1.08;0.60;;;14.90;99.90;;;;;;4978170;28;20234;-89
2022/08/31 02:25:57;;;;;;;1.45;0.63;;;14.90;99.90;;;;;;4978217;28;20175;-86
2022/08/31 02:28:23;;;;;;;1.00;0.60;;;14.90;99.90;;;;;;4994905;28;20191;-83
2022/08/31 02:30:49;;;;;;;1.52;0.50;;;14.90;99.90;;;;;;4977667;28;20593;-84
2022/08/31 02:33:15;;;;;;;1.02;0.60;;;14.90;99.90;;;;;;4995472;28;20172;-91
2022/08/31 02:35:41;;;;;;;4.00;0.80;;;14.90;99.90;;;;;;4999709;28;20198;-92
2022/08/31 02:38:10;;;;;;;0.80;0.65;;;14.80;99.90;;;;;;4999483;28;20179;-91
2022/08/31 02:40:37;;;;;;;1.38;0.80;;;14.80;99.90;;;;;;4982242;28;20182;-90
2022/08/31 02:43:08;;;;;;;0.75;0.70;;;14.80;99.90;;;;;;4981831;28;20690;-90
2022/08/31 02:45:34;;;;;;;1.13;0.77;;;14.80;99.90;;;;;;4998686;28;20734;-88
2022/08/31 02:48:09;;;;;;;1.67;0.70;;;14.80;99.90;;;;;;4998863;28;20219;-90
2022/08/31 02:50:45;;;;;;;1.20;0.70;;;14.80;99.90;;;;;;4999264;28;20206;-90
2022/08/31 02:53:13;;;;;;;1.58;0.60;;;14.80;99.90;;;;;;4998774;28;20185;-89
2022/08/31 02:55:39;;;;;;;1.58;0.68;;;14.80;99.90;;;;;;5437884;23;20274;-84
2022/08/31 02:58:06;;;;;;;1.63;0.50;;;14.70;99.90;;;;;;4998206;28;20586;-82
2022/08/31 03:00:35;;;;;;;1.20;0.70;;;14.70;99.90;;;;;;4980583;28;20219;-83
2022/08/31 03:03:01;;;;;;;1.08;0.68;;;14.70;99.90;;;;;;4981204;28;20610;-86
2022/08/31 03:05:27;;;;;;;0.77;0.50;;;14.70;99.90;;;;;;4998698;28;20190;-83
2022/08/31 03:07:54;;;;;;;0.80;0.60;;;14.70;99.90;;;;;;4981258;28;20183;-82
2022/08/31 03:10:22;;;;;;;1.35;0.77;;;14.60;99.90;;;;;;4980785;28;20207;-83
2022/08/31 03:12:49;;;;;;;1.25;0.50;;;14.60;99.90;;;;;;4981307;28;20183;-84
2022/08/31 03:15:16;;;;;;;1.20;0.70;;;14.60;99.90;;;;;;4998389;28;20183;-86
2022/08/31 03:17:42;;;;;;;1.95;0.70;;;14.50;99.90;;;;;;4981245;28;20180;-84
2022/08/31 03:20:10;;;;;;;1.50;0.80;;;14.50;99.90;;;;;;4981483;28;20179;-84
2022/08/31 03:22:36;;;;;;;0.70;0.60;;;14.50;99.90;;;;;;4981166;28;20180;-85
2022/08/31 03:25:06;;;;;;;1.80;0.80;;;14.50;99.90;;;;;;4980613;28;20493;-80
2022/08/31 03:27:33;;;;;;;1.23;0.60;;;14.50;99.90;;;;;;4980510;28;20176;-85
2022/08/31 03:29:59;;;;;;;1.13;0.70;;;14.50;99.90;;;;;;4996910;28;20203;-85
2022/08/31 03:32:26;;;;;;;0.95;0.73;;;14.40;99.90;;;;;;4998087;28;20182;-83
2022/08/31 03:34:54;;;;;;;1.35;0.77;;;14.40;99.90;;;;;;4981080;28;20180;-84
2022/08/31 03:37:20;;;;;;;4.68;0.68;;;14.30;99.90;;;;;;4980902;28;20274;-83
2022/08/31 03:39:47;;;;;;;1.10;0.50;;;14.20;99.90;;;;;;4980748;28;20700;-85
2022/08/31 03:42:13;;;;;;;1.05;0.68;;;14.20;99.90;;;;;;4980528;28;20634;-86
2022/08/31 03:44:39;;;;;;;0.98;0.60;;;14.10;99.90;;;;;;4980370;28;20179;-85
2022/08/31 03:47:07;;;;;;;1.42;0.57;;;14.10;99.90;;;;;;4980163;28;20226;-82
2022/08/31 03:49:33;;;;;;;1.13;0.68;;;14.00;99.90;;;;;;4980568;28;20681;-87
2022/08/31 03:51:59;;;;;;;2.72;0.80;;;14.10;99.90;;;;;;4980975;28;20184;-86
2022/08/31 03:54:24;;;;;;;1.23;0.68;;;14.10;99.90;;;;;;4980741;28;20187;-90
2022/08/31 03:56:52;;;;;;;0.57;0.45;;;14.00;99.90;;;;;;4997707;28;20314;-89
2022/08/31 03:59:18;;;;;;;1.02;0.88;;;14.00;99.90;;;;;;4980503;28;20180;-88
2022/08/31 04:01:44;;;;;;;2.25;0.60;;;14.10;99.90;;;;;;4998085;28;20276;-86
2022/08/31 04:04:12;;;;;;;0.52;0.50;;;14.00;99.90;;;;;;4980979;28;20180;-87
2022/08/31 04:06:43;;;;;;;0.70;0.70;;;14.00;99.90;;;;;;4981118;28;20176;-87
2022/08/31 04:09:10;;;;;;;1.30;0.80;;;14.00;99.90;;;;;;4997713;28;20211;-87
2022/08/31 04:11:40;;;;;;;4.00;0.90;;;13.90;99.90;;;;;;4998157;28;20176;-88
2022/08/31 04:14:06;;;;;;;3.50;0.85;;;13.90;99.90;;;;;;4998280;28;20690;-87
2022/08/31 04:16:33;;;;;;;1.73;0.88;;;13.80;99.90;;;;;;5003177;28;20190;-87
2022/08/31 04:18:59;;;;;;;0.90;0.70;;;13.80;99.90;;;;;;4999817;28;20180;-87
2022/08/31 04:21:29;;;;;;;2.25;0.90;;;13.70;99.90;;;;;;4999488;28;20180;-88
2022/08/31 04:23:55;;;;;;;1.50;0.57;;;13.70;99.90;;;;;;4997269;28;20606;-83
2022/08/31 04:26:27;;;;;;;0.95;0.63;;;13.70;99.90;;;;;;4996750;28;20230;-83
2022/08/31 04:28:54;;;;;;;1.85;0.90;;;13.70;99.90;;;;;;4971414;28;20190;-82
2022/08/31 04:31:22;;;;;;;1.45;0.90;;;13.70;99.90;;;;;;4997083;28;20199;-83
2022/08/31 04:33:48;;;;;;;1.05;0.73;;;13.60;99.90;;;;;;4979717;28;20267;-82
2022/08/31 04:36:20;;;;;;;0.80;0.70;;;13.60;99.90;;;;;;4986302;28;20184;-86
2022/08/31 04:38:51;;;;;;;1.00;0.80;;;13.60;99.90;;;;;;4982924;28;20317;-84
2022/08/31 04:41:18;;;;;;;1.25;0.80;;;13.50;99.90;;;;;;4995621;28;20234;-86
2022/08/31 04:43:47;;;;;;;2.28;0.82;;;13.60;99.90;;;;;;4998161;28;20226;-84
2022/08/31 04:46:13;;;;;;;1.70;1.00;;;13.60;99.90;;;;;;4996230;28;20191;-84
2022/08/31 04:48:39;;;;;;;2.60;0.90;;;13.60;99.90;;;;;;4998002;28;20187;-85
2022/08/31 04:51:19;;;;;;;2.72;1.05;;;13.50;99.90;;;;;;4995961;28;20231;-84
2022/08/31 04:53:45;;;;;;;3.80;1.02;;;13.40;99.90;;;;;;4995544;28;20164;-84
2022/08/31 04:56:17;;;;;;;1.60;1.02;;;13.50;99.90;;;;;;4996223;28;20231;-83
2022/08/31 04:58:47;;;;;;;1.15;0.70;;;13.40;99.90;;;;;;4980530;28;20215;-83
2022/08/31 05:01:16;;;;;;;1.55;0.80;;;13.50;99.90;;;;;;4979467;28;20621;-84
2022/08/31 05:03:43;;;;;;;1.40;0.80;;;13.50;99.90;;;;;;4979349;28;20208;-83
2022/08/31 05:06:14;;;;;;;1.60;0.98;;;13.50;99.90;;;;;;4979161;28;20522;-85
2022/08/31 05:08:43;;;;;;;1.95;0.80;;;13.50;99.90;;;;;;4979148;28;20584;-83
2022/08/31 05:11:10;;;;;;;1.65;0.90;;;13.50;99.90;;;;;;4978699;28;20233;-86
2022/08/31 05:13:36;;;;;;;1.20;0.93;;;13.50;99.90;;;;;;4979920;28;20176;-84
2022/08/31 05:16:04;;;;;;;2.00;0.90;;;13.50;99.90;;;;;;4979583;28;20195;-82
2022/08/31 05:18:30;;;;;;;3.10;0.98;;;13.50;99.90;;;;;;4978879;28;20607;-83
2022/08/31 05:20:56;;;;;;;1.52;0.90;;;13.60;99.90;;;;;;4979440;28;20180;-83
2022/08/31 05:23:22;;;;;;;2.58;1.05;;;13.50;99.90;;;;;;4979188;28;20202;-82
2022/08/31 05:25:48;;;;;;;1.25;0.88;;;13.60;99.90;;;;;;4995564;28;20175;-81
2022/08/31 05:28:16;;;;;;;2.92;0.73;;;13.60;99.90;;;;;;4996612;28;20192;-82
2022/08/31 05:30:43;;;;;;;1.10;0.80;;;13.50;99.90;;;;;;4996281;28;20203;-82
2022/08/31 05:33:09;;;;;;;2.17;1.08;;;13.60;99.90;;;;;;4978488;28;20611;-84
2022/08/31 05:35:36;;;;;;;1.02;0.80;;;13.60;99.90;;;;;;4978799;28;20190;-83
2022/08/31 05:38:02;;;;;;;2.05;0.70;;;13.60;99.90;;;;;;4995314;28;20490;-83
2022/08/31 05:40:28;;;;;;;1.38;0.73;;;13.60;99.90;;;;;;4996216;28;20172;-81
2022/08/31 05:42:55;;;;;;;3.45;1.10;;;13.60;99.90;;;;;;4978456;28;20176;-86
2022/08/31 05:45:20;;;;;;;1.10;0.90;;;13.60;99.90;;;;;;4995313;28;20175;-82
2022/08/31 05:47:46;;;;;;;1.95;0.90;;;13.60;99.90;;;;;;4977760;28;20179;-83
2022/08/31 05:50:12;;;;;;;3.15;0.90;;;13.60;99.90;;;;;;4977696;28;20311;-83
2022/08/31 05:52:37;;;;;;;2.33;1.10;;;13.60;99.90;;;;;;4978129;28;20172;-84
2022/08/31 05:55:03;;;;;;;0.90;0.73;;;13.70;99.90;;;;;;4995403;28;20228;-81
2022/08/31 05:57:29;;;;;;;1.80;0.80;;;13.70;99.90;;;;;;4977843;28;20199;-83
2022/08/31 05:59:57;;;;;;;2.35;0.75;;;13.70;99.90;;;;;;4992640;28;20618;-84
2022/08/31 06:02:23;;;;;;;1.63;0.90;;;13.80;99.90;;;;;;4994465;28;20176;-84
2022/08/31 06:04:50;;;;;;;2.72;0.80;;;13.90;99.90;;;;;;4994389;28;20191;-86
2022/08/31 06:07:16;;;;;;;3.95;1.00;;;14.00;99.90;;;;;;4993897;28;20179;-84
2022/08/31 06:09:43;;;;;;;2.63;0.90;;;14.10;99.90;;;;;;4993674;28;20269;-84
2022/08/31 06:12:09;;;;;;;1.85;1.25;;;14.10;99.90;;;;;;4994486;28;20682;-85
2022/08/31 06:14:35;;;;;;;1.20;0.90;;;14.20;99.90;;;;;;4994616;28;20225;-82
2022/08/31 06:17:00;;;;;;;3.08;0.90;;;14.20;99.90;;;;;;4985823;28;20270;-84
2022/08/31 06:19:26;;;;;;;1.67;0.90;;;14.20;99.90;;;;;;4995390;28;20566;-83
2022/08/31 06:21:52;;;;;;;1.88;1.00;;;14.30;99.90;;;;;;4977679;28;20254;-84
2022/08/31 06:24:19;;;;;;;1.90;0.73;;;14.30;99.90;;;;;;4978102;28;20194;-82
2022/08/31 06:26:51;;;;;;;1.05;0.75;;;14.30;99.90;;;;;;4995295;28;20190;-83
2022/08/31 06:29:17;;;;;;;1.80;0.80;;;14.40;99.90;;;;;;4995648;28;20191;-83
2022/08/31 06:31:45;;;;;;;1.98;0.80;;;14.40;99.90;;;;;;4978270;28;20226;-84
2022/08/31 06:34:12;;;;;;;0.90;0.70;;;14.40;99.90;;;;;;4995168;28;20226;-83
2022/08/31 06:36:38;;;;;;;1.95;0.77;;;14.50;99.90;;;;;;4978060;28;20183;-84
2022/08/31 06:39:04;;;;;;;2.05;0.95;;;14.50;99.90;;;;;;4978145;28;20495;-85
2022/08/31 06:41:34;;;;;;;2.00;0.80;;;14.60;99.90;;;;;;4978033;28;20272;-85
2022/08/31 06:44:01;;;;;;;6.15;0.80;;;14.60;99.90;;;;;;4978355;28;20175;-84
2022/08/31 06:46:28;;;;;;;4.05;0.90;;;14.70;99.90;;;;;;4995434;28;20525;-83
2022/08/31 06:48:58;;;;;;;2.70;0.88;;;14.80;99.90;;;;;;4978167;28;20172;-87
2022/08/31 06:51:24;;;;;;;1.05;0.70;;;14.90;99.90;;;;;;4978175;28;20195;-90
2022/08/31 06:53:51;;;;;;;0.85;0.73;;;14.90;99.90;;;;;;4977688;28;20176;-85
2022/08/31 06:56:24;;;;;;;1.23;0.95;;;15.00;99.90;;;;;;4978080;28;20701;-85
2022/08/31 06:58:51;;;;;;;2.00;0.77;;;15.10;99.90;;;;;;4958674;28;20608;-84
2022/08/31 07:01:27;;;;;;;1.48;0.70;;;15.10;99.90;;;;;;4982126;28;20730;-85
2022/08/31 07:03:54;;;;;;;3.40;0.98;;;15.20;99.90;;;;;;4992761;28;20187;-84
2022/08/31 07:06:24;;;;;;;3.00;0.90;;;15.30;99.90;;;;;;4997476;28;20182;-85
2022/08/31 07:08:55;;;;;;;3.80;0.70;;;15.30;99.90;;;;;;4997698;28;20183;-84
2022/08/31 07:11:28;;;;;;;2.58;0.90;;;15.40;99.90;;;;;;4985900;28;20192;-85
2022/08/31 07:13:55;;;;;;;1.73;1.00;;;15.50;99.90;;;;;;4962403;28;20264;-87
2022/08/31 07:16:22;;;;;;;2.60;1.02;;;15.50;99.90;;;;;;4975613;28;20625;-84
2022/08/31 07:18:49;;;;;;;4.15;1.02;;;15.60;99.90;;;;;;4962232;28;20179;-84
2022/08/31 07:21:17;;;;;;;5.28;1.13;;;15.70;99.90;;;;;;4986297;28;20188;-82
2022/08/31 07:23:44;;;;;;;2.92;0.90;;;15.70;99.90;;;;;;4999100;28;20259;-85
2022/08/31 07:26:16;;;;;;;2.13;0.80;;;15.80;99.90;;;;;;4981523;28;20172;-84
2022/08/31 07:28:42;;;;;;;1.38;0.80;;;15.90;99.90;;;;;;4982026;28;20278;-85
2022/08/31 07:31:10;;;;;;;3.10;1.00;;;16.00;99.90;;;;;;4981188;28;20265;-85
2022/08/31 07:33:39;;;;;;;1.55;0.95;;;16.00;99.90;;;;;;4981410;28;20550;-86
2022/08/31 07:36:08;;;;;;;2.20;0.85;;;16.20;99.90;;;;;;4981441;28;20176;-84
2022/08/31 07:44:07;;;;;;;1.70;0.90;;;16.30;99.90;;;;;;4979323;28;20207;-89
2022/08/31 07:46:34;;;;;;;1.80;0.82;;;16.30;99.90;;;;;;4977661;28;20234;-88
2022/08/31 07:49:00;;;;;;;3.45;1.00;;;16.40;99.90;;;;;;4989492;28;20203;-87
2022/08/31 07:51:27;;;;;;;2.20;0.93;;;16.40;99.90;;;;;;4991276;28;20189;-81
2022/08/31 07:53:54;;;;;;;1.52;0.80;;;16.50;99.90;;;;;;4985113;28;20622;-88
2022/08/31 07:56:22;;;;;;;2.20;0.80;;;16.60;99.90;;;;;;4968972;28;20228;-88
2022/08/31 07:58:48;;;;;;;3.17;0.88;;;16.70;99.90;;;;;;4991811;28;20243;-84
2022/08/31 08:01:16;;;;;;;2.55;1.00;;;16.90;99.90;;;;;;4991358;28;20234;-90
2022/08/31 08:03:43;;;;;;;1.52;0.80;;;16.90;99.90;;;;;;4993651;28;20224;-87
2022/08/31 08:06:18;;;;;;;2.10;0.90;;;17.10;99.90;;;;;;4997828;28;20187;-88
2022/08/31 08:08:45;;;;;;;1.13;0.82;;;17.20;99.90;;;;;;4997182;28;20179;-86
2022/08/31 08:11:20;;;;;;;1.92;1.00;;;17.30;99.90;;;;;;4993579;28;20290;-82
2022/08/31 08:13:48;;;;;;;2.20;1.00;;;17.30;99.90;;;;;;4996620;28;20183;-84
2022/08/31 08:16:14;;;;;;;4.75;0.68;;;17.40;99.90;;;;;;4996777;28;20194;-85
2022/08/31 08:18:40;;;;;;;3.38;1.00;;;17.60;99.90;;;;;;4979381;28;20187;-83
2022/08/31 08:21:07;;;;;;;2.25;0.80;;;17.70;99.90;;;;;;4995118;28;20176;-82
2022/08/31 08:23:33;;;;;;;1.67;0.52;;;17.70;99.90;;;;;;4980101;28;20215;-86
2022/08/31 08:26:00;;;;;;;2.83;0.70;;;17.70;99.90;;;;;;4990444;28;20184;-80
2022/08/31 08:28:30;;;;;;;2.25;0.80;;;17.90;99.90;;;;;;4967833;28;20286;-82
2022/08/31 08:31:00;;;;;;;2.35;0.73;;;17.90;99.90;;;;;;4975601;28;20258;-83
2022/08/31 08:33:28;;;;;;;1.10;0.60;;;18.10;99.90;;;;;;4978602;28;20187;-85
2022/08/31 08:35:56;;;;;;;1.45;0.70;;;18.10;99.90;;;;;;4976862;28;20187;-87
2022/08/31 08:38:29;;;;;;;1.08;0.60;;;18.20;99.90;;;;;;4994483;28;20208;-82
2022/08/31 08:41:01;;;;;;;1.73;0.88;;;18.30;99.90;;;;;;4977250;28;20222;-88
2022/08/31 08:43:45;;;;;;;3.88;0.77;;;18.40;99.90;;;;;;4995340;28;20184;-82
2022/08/31 08:46:13;;;;;;;1.05;0.50;;;18.50;99.90;;;;;;4995853;28;20266;-86
2022/08/31 08:48:40;;;;;;;1.67;0.60;;;18.50;99.90;;;;;;4979389;28;20215;-88
2022/08/31 08:51:15;;;;;;;2.33;0.80;;;18.60;99.90;;;;;;4978864;28;20216;-85
2022/08/31 08:53:44;;;;;;;2.17;0.68;;;18.70;99.90;;;;;;4987501;28;20300;-86
2022/08/31 08:56:12;;;;;;;1.30;0.80;;;18.60;99.90;;;;;;4976949;28;20224;-87
2022/08/31 08:58:43;;;;;;;0.95;0.60;;;18.60;99.90;;;;;;4960223;28;20181;-90
2022/08/31 09:01:17;;;;;;;1.77;0.68;;;18.70;99.90;;;;;;4965998;28;20198;-90
2022/08/31 09:04:11;;;;;;;1.60;0.70;;;18.70;99.90;;;;;;4969800;28;20187;-83
2022/08/31 09:06:53;;;;;;;1.60;0.70;;;18.80;99.90;;;;;;4988185;28;20207;-86
2022/08/31 09:09:31;;;;;;;1.75;0.80;;;18.90;99.90;;;;;;4976063;28;20207;-85
2022/08/31 09:12:34;;;;;;;1.73;0.82;;;19.00;99.80;;;;;;4978745;28;20749;-89
2022/08/31 09:15:27;;;;;;;5.07;0.70;;;19.10;99.90;;;;;;4976870;28;20519;-83
2022/08/31 09:18:25;;;;;;;1.50;0.70;;;19.30;99.80;;;;;;4996130;28;20560;-86
2022/08/31 09:21:05;;;;;;;3.70;0.77;;;19.40;99.60;;;;;;4998247;28;20216;-85
2022/08/31 09:23:36;;;;;;;2.13;0.77;;;19.40;99.20;;;;;;4990861;28;20186;-86
2022/08/31 09:26:03;;;;;;;2.78;0.85;;;19.40;98.50;;;;;;4978315;28;20529;-87
2022/08/31 09:28:43;;;;;;;1.67;0.82;;;19.40;98.60;;;;;;4978262;28;20269;-90
2022/08/31 09:31:36;;;;;;;0.98;0.60;;;19.40;98.40;;;;;;4991969;28;20216;-84
2022/08/31 09:34:05;;;;;;;1.23;0.57;;;19.40;98.20;;;;;;4978791;28;20188;-86
2022/08/31 09:36:40;;;;;;;1.13;0.70;;;19.40;98.20;;;;;;4973914;28;20192;-88
2022/08/31 09:39:28;;;;;;;5.30;0.88;;;19.30;98.40;;;;;;4991868;28;20190;-87
2022/08/31 09:42:02;;;;;;;4.22;0.65;;;19.30;98.50;;;;;;4976292;28;20334;-85
2022/08/31 09:44:34;;;;;;;1.63;0.60;;;19.20;98.30;;;;;;4977454;28;20191;-85
2022/08/31 09:47:06;;;;;;;5.47;1.00;;;19.20;98.40;;;;;;4981164;28;20194;-86
2022/08/31 09:49:36;;;;;;;1.75;0.80;;;19.40;98.80;;;;;;4977416;28;20215;-85
2022/08/31 09:52:18;;;;;;;4.25;0.88;;;19.50;98.40;;;;;;4994236;28;20265;-87
2022/08/31 09:55:12;;;;;;;2.92;0.88;;;19.60;98.70;;;;;;4974914;28;20184;-85
2022/08/31 09:57:51;;;;;;;1.70;0.80;;;19.80;98.10;;;;;;4994972;28;20192;-84
2022/08/31 10:00:27;;;;;;;2.00;0.60;;;20.00;97.70;;;;;;4977148;28;20187;-85
2022/08/31 10:03:07;;;;;;;7.75;0.70;;;20.10;96.50;;;;;;4976290;28;20183;-88
2022/08/31 10:05:39;;;;;;;1.35;0.77;;;20.20;96.80;;;;;;4993909;28;20245;-83
2022/08/31 10:08:41;;;;;;;4.05;0.93;;;20.30;95.50;;;;;;4976791;28;20696;-81
2022/08/31 10:11:11;;;;;;;1.88;0.60;;;20.40;95.40;;;;;;4976154;28;20226;-83
2022/08/31 10:13:42;;;;;;;2.88;0.70;;;20.40;95.30;;;;;;4982517;28;20207;-81
2022/08/31 10:16:24;;;;;;;1.15;0.73;;;20.30;94.30;;;;;;4979718;28;20184;-87
2022/08/31 10:19:05;;;;;;;3.58;0.60;;;20.40;94.80;;;;;;4974320;28;20188;-83
2022/08/31 10:21:47;;;;;;;0.90;0.55;;;20.40;95.00;;;;;;4976217;28;20204;-82
2022/08/31 10:24:33;;;;;;;2.22;0.60;;;20.40;94.40;;;;;;4989743;28;20179;-82
2022/08/31 10:27:11;;;;;;;2.03;0.60;;;20.50;94.20;;;;;;4988979;28;20271;-85
2022/08/31 10:29:40;;;;;;;1.48;0.70;;;20.60;94.40;;;;;;4976552;28;20230;-83
2022/08/31 10:32:32;;;;;;;3.13;0.70;;;20.70;94.30;;;;;;4974769;28;20194;-82
2022/08/31 10:35:21;;;;;;;1.55;0.57;;;21.00;93.50;;;;;;4974210;28;20526;-80
2022/08/31 10:38:17;;;;;;;1.77;0.65;;;21.10;93.40;;;;;;4990506;28;20203;-84
2022/08/31 10:41:12;;;;;;;1.13;0.63;;;21.20;93.40;;;;;;4976035;28;20279;-83
2022/08/31 10:44:00;;;;;;;5.68;0.63;;;21.30;92.50;;;;;;4967271;28;20283;-83
2022/08/31 10:46:27;;;;;;;1.02;0.60;;;21.50;91.70;;;;;;4991248;28;20180;-82
2022/08/31 10:48:56;;;;;;;1.50;0.77;;;21.70;91.80;;;;;;4976752;28;20180;-84
2022/08/31 10:51:28;;;;;;;2.13;0.50;;;21.70;91.40;;;;;;4975919;28;20556;-84
2022/08/31 10:54:27;;;;;;;1.48;0.80;;;21.50;91.80;;;;;;4976510;28;20246;-83
2022/08/31 10:57:27;;;;;;;1.35;0.60;;;21.60;91.70;;;;;;4976818;28;20235;-85
2022/08/31 11:00:40;;;;;;;1.58;0.57;;;21.60;91.30;;;;;;4986487;28;20178;-84
2022/08/31 11:03:19;;;;;;;2.70;0.60;;;21.50;90.90;;;;;;4998024;28;20176;-81
2022/08/31 11:05:56;;;;;;;1.70;0.57;;;21.50;91.00;;;;;;4998168;28;20219;-82
2022/08/31 11:08:25;;;;;;;3.53;0.93;;;21.60;91.90;;;;;;4997005;28;20176;-82
2022/08/31 11:10:56;;;;;;;1.25;0.63;;;21.70;91.50;;;;;;4996734;28;20231;-82
2022/08/31 11:13:50;;;;;;;1.88;0.70;;;21.50;90.20;;;;;;4996763;28;20226;-83
2022/08/31 11:16:21;;;;;;;3.25;0.70;;;21.40;90.70;;;;;;4997654;28;20783;-83
2022/08/31 11:19:25;;;;;;;6.80;1.00;;;21.40;90.30;;;;;;4997974;28;20176;-82
2022/08/31 11:22:36;;;;;;;1.42;0.80;;;21.50;90.30;;;;;;4966193;28;20582;-83
2022/08/31 11:25:32;;;;;;;4.32;0.80;;;21.60;90.10;;;;;;4973577;28;20191;-83
2022/08/31 11:28:07;;;;;;;1.10;0.70;;;21.80;90.20;;;;;;4980471;28;20192;-83
2022/08/31 11:30:36;;;;;;;1.80;0.80;;;22.00;90.10;;;;;;4980285;28;20203;-83
2022/08/31 11:33:09;;;;;;;2.55;0.85;;;22.10;89.80;;;;;;4996464;28;20180;-82
2022/08/31 11:36:07;;;;;;;1.77;0.60;;;22.00;89.80;;;;;;4989518;28;20642;-83
2022/08/31 11:39:00;;;;;;;1.02;0.70;;;22.10;89.80;;;;;;4997269;28;20344;-84
2022/08/31 11:41:42;;;;;;;2.67;0.85;;;22.10;88.10;;;;;;4980137;28;20168;-83
2022/08/31 11:44:29;;;;;;;1.65;0.70;;;22.20;90.00;;;;;;4979842;28;20180;-83
2022/08/31 11:47:08;;;;;;;1.40;0.52;;;22.30;90.10;;;;;;4997148;28;20215;-83
2022/08/31 11:49:44;;;;;;;5.88;0.75;;;22.50;90.00;;;;;;4997246;28;20195;-85
2022/08/31 11:52:42;;;;;;;0.55;0.45;;;22.60;89.30;;;;;;4997250;28;20168;-84
2022/08/31 11:55:14;;;;;;;2.38;0.60;;;22.80;89.40;;;;;;4976291;28;20279;-83
2022/08/31 11:58:17;;;;;;;4.38;1.10;;;23.00;87.90;;;;;;4977771;28;20267;-82
2022/08/31 12:00:57;;;;;;;1.17;0.70;;;22.70;86.40;;;;;;4940304;29;20181;-84
2022/08/31 12:03:46;;;;;;;1.60;0.60;;;22.60;87.40;;;;;;4975748;28;20193;-81
2022/08/31 12:06:39;;;;;;;2.20;0.60;;;22.60;88.50;;;;;;4976113;28;20184;-82
2022/08/31 12:09:32;;;;;;;1.77;0.60;;;22.50;88.30;;;;;;4961496;28;20188;-83
2022/08/31 12:12:23;;;;;;;2.00;0.65;;;22.60;86.90;;;;;;4976582;28;20210;-85
2022/08/31 12:15:07;;;;;;;1.15;0.50;;;22.60;86.80;;;;;;4976552;28;20188;-83
2022/08/31 12:18:03;;;;;;;0.95;0.45;;;22.70;87.70;;;;;;4976728;28;20191;-83
2022/08/31 12:24:08;;;;;;;1.65;0.60;;;22.60;85.00;;;;;;4977583;28;20230;-83
2022/08/31 12:26:56;;;;;;;1.30;0.47;;;22.80;84.50;;;;;;4976618;28;20501;-81
2022/08/31 12:29:34;;;;;;;2.90;0.60;;;22.90;84.90;;;;;;4975916;28;20176;-83
2022/08/31 12:32:03;;;;;;;0.98;0.63;;;23.00;84.70;;;;;;4976029;28;20187;-82
2022/08/31 12:34:30;;;;;;;2.13;0.60;;;23.20;85.00;;;;;;4975805;28;20180;-82
2022/08/31 12:36:56;;;;;;;0.73;0.40;;;23.30;84.40;;;;;;4991507;28;20200;-84
2022/08/31 12:39:26;;;;;;;1.70;0.55;;;23.30;85.30;;;;;;4975629;28;20177;-82
2022/08/31 12:42:01;;;;;;;1.35;0.63;;;23.40;85.20;;;;;;4977154;28;20181;-83
2022/08/31 12:44:32;;;;;;;1.88;0.70;;;23.50;84.40;;;;;;4976921;28;20608;-83
2022/08/31 12:47:20;;;;;;;1.48;0.57;;;23.50;82.80;;;;;;4975506;28;20181;-82
2022/08/31 12:49:59;;;;;;;2.08;0.70;;;23.50;83.40;;;;;;4974357;28;20236;-83
2022/08/31 12:52:58;;;;;;;1.13;0.50;;;23.40;84.30;;;;;;4962051;28;20619;-81
2022/08/31 12:55:57;;;;;;;1.98;0.50;;;23.50;83.50;;;;;;4969163;28;21008;-81
2022/08/31 12:58:52;;;;;;;1.88;0.50;;;23.60;82.90;;;;;;4992200;28;20187;-84
2022/08/31 13:01:22;;;;;;;1.92;0.50;;;23.60;83.30;;;;;;4995139;28;20172;-84
2022/08/31 13:03:52;;;;;;;3.03;0.68;;;23.60;82.00;;;;;;4971333;28;20188;-82
2022/08/31 13:06:26;;;;;;;1.90;0.60;;;23.70;83.40;;;;;;4983781;28;20208;-83
2022/08/31 13:08:53;;;;;;;2.65;0.60;;;23.90;83.90;;;;;;4961579;28;20208;-84
2022/08/31 13:11:33;;;;;;;0.88;0.60;;;24.20;82.80;;;;;;4963700;28;20216;-81
2022/08/31 13:14:23;;;;;;;2.95;0.70;;;24.40;81.40;;;;;;4977324;28;20196;-84
2022/08/31 13:16:54;;;;;;;1.02;0.50;;;24.40;80.10;;;;;;4978228;28;20245;-81
2022/08/31 13:19:29;;;;;;;0.30;0.30;;;24.40;80.80;;;;;;4978319;28;20223;-83
2022/08/31 13:21:58;;;;;;;0.80;0.50;;;24.50;80.00;;;;;;4978017;28;20183;-84
2022/08/31 13:24:39;;;;;;;1.98;0.85;;;24.40;80.00;;;;;;4994465;28;20262;-88
2022/08/31 13:27:17;;;;;;;1.95;0.70;;;24.50;80.70;;;;;;4995928;28;20176;-83